createdAt,value
2022-10-12T00:00:52.088Z,7.86
2022-10-12T00:03:35.033Z,7.72
2022-10-12T00:06:05.512Z,7.95
2022-10-12T00:08:34.310Z,7.81
2022-10-12T00:11:02.623Z,7.67
2022-10-12T00:13:32.505Z,7.90
2022-10-12T00:16:03.747Z,7.93
2022-10-12T00:18:31.986Z,8.33
2022-10-12T00:21:04.185Z,7.93
2022-10-12T00:23:32.985Z,7.63
2022-10-12T00:26:05.311Z,7.83
2022-10-12T00:28:35.401Z,7.84
2022-10-12T00:31:03.851Z,7.58
2022-10-12T00:33:32.132Z,7.53
2022-10-12T00:36:00.360Z,7.53
2022-10-12T00:38:28.479Z,7.49
2022-10-12T00:40:56.866Z,7.47
2022-10-12T00:43:27.431Z,7.76
2022-10-12T00:45:57.239Z,7.80
2022-10-12T00:48:25.997Z,7.65
2022-10-12T00:50:54.613Z,7.55
2022-10-12T00:53:25.033Z,7.77
2022-10-12T00:55:59.341Z,7.85
2022-10-12T00:58:28.934Z,7.66
2022-10-12T01:00:58.699Z,7.77
2022-10-12T01:03:27.380Z,7.47
2022-10-12T01:05:55.633Z,7.40
2022-10-12T01:08:24.105Z,7.28
2022-10-12T01:10:52.456Z,7.26
2022-10-12T01:13:20.863Z,7.16
2022-10-12T01:15:55.649Z,7.55
2022-10-12T01:18:28.987Z,7.45
2022-10-12T01:21:08.008Z,7.50
2022-10-12T01:23:50.034Z,7.49
2022-10-12T01:26:41.702Z,7.51
2022-10-12T01:29:24.241Z,7.62
2022-10-12T01:31:59.887Z,7.52
2022-10-12T01:34:30.953Z,7.41
2022-10-12T01:37:03.478Z,7.44
2022-10-12T01:39:36.111Z,7.40
2022-10-12T01:42:08.156Z,7.30
2022-10-12T01:44:40.532Z,6.97
2022-10-12T01:47:12.169Z,7.17
2022-10-12T01:49:40.622Z,6.82
2022-10-12T01:52:28.932Z,7.40
2022-10-12T01:55:07.541Z,7.20
2022-10-12T01:57:43.506Z,7.14
2022-10-12T02:00:13.652Z,7.06
2022-10-12T02:02:51.828Z,7.22
2022-10-12T02:05:26.312Z,7.06
2022-10-12T02:07:57.264Z,7.02
2022-10-12T02:10:29.042Z,6.92
2022-10-12T02:12:59.236Z,6.89
2022-10-12T02:15:28.441Z,6.81
2022-10-12T02:17:59.051Z,6.86
2022-10-12T02:20:28.176Z,6.61
2022-10-12T02:22:56.853Z,6.51
2022-10-12T02:25:27.104Z,6.68
2022-10-12T02:27:58.696Z,6.64
2022-10-12T02:30:27.151Z,6.37
2022-10-12T02:33:00.836Z,6.62
2022-10-12T02:35:34.099Z,6.61
2022-10-12T02:38:04.823Z,6.43
2022-10-12T02:40:36.005Z,6.59
2022-10-12T02:43:10.372Z,6.96
2022-10-12T02:45:39.936Z,6.31
2022-10-12T02:48:10.752Z,6.59
2022-10-12T02:50:38.995Z,6.09
2022-10-12T02:53:07.399Z,6.25
2022-10-12T02:55:39.594Z,6.66
2022-10-12T02:58:07.705Z,6.28
2022-10-12T03:00:35.948Z,6.31
2022-10-12T03:03:04.320Z,6.34
2022-10-12T03:05:33.908Z,6.61
2022-10-12T03:08:01.977Z,6.35
2022-10-12T03:10:30.285Z,6.29
2022-10-12T03:12:58.356Z,6.28
2022-10-12T03:15:26.546Z,6.23
2022-10-12T03:17:54.819Z,6.31
2022-10-12T03:20:23.112Z,6.33
2022-10-12T03:22:53.448Z,6.63
2022-10-12T03:25:21.816Z,6.36
2022-10-12T03:27:50.040Z,6.39
2022-10-12T03:30:18.244Z,6.28
2022-10-12T03:32:46.601Z,6.18
2022-10-12T03:35:14.716Z,6.00
2022-10-12T03:37:42.921Z,5.91
2022-10-12T03:40:13.982Z,6.26
2022-10-12T03:42:42.128Z,5.96
2022-10-12T03:45:11.119Z,6.02
2022-10-12T03:47:39.935Z,5.96
2022-10-12T03:50:09.121Z,5.90
2022-10-12T03:52:37.326Z,5.86
2022-10-12T03:55:06.203Z,5.82
2022-10-12T03:57:36.007Z,6.00
2022-10-12T04:00:05.762Z,5.83
2022-10-12T04:02:34.021Z,5.61
2022-10-12T04:05:02.239Z,5.55
2022-10-12T04:07:30.536Z,5.52
2022-10-12T04:09:58.793Z,5.48
2022-10-12T04:12:27.113Z,5.58
2022-10-12T04:14:56.812Z,5.89
2022-10-12T04:17:24.929Z,5.65
2022-10-12T04:19:53.234Z,5.67
2022-10-12T04:22:21.299Z,5.65
2022-10-12T04:24:49.418Z,5.67
2022-10-12T04:27:17.671Z,5.64
2022-10-12T04:29:45.746Z,5.58
2022-10-12T04:32:15.260Z,5.85
2022-10-12T04:34:43.582Z,5.55
2022-10-12T04:37:11.687Z,5.51
2022-10-12T04:39:40.090Z,5.52
2022-10-12T04:42:08.302Z,5.53
2022-10-12T04:44:36.707Z,5.55
2022-10-12T04:47:04.967Z,5.52
2022-10-12T04:49:34.805Z,5.82
2022-10-12T04:52:02.918Z,5.57
2022-10-12T04:54:32.925Z,5.61
2022-10-12T04:57:01.839Z,5.64
2022-10-12T04:59:30.346Z,5.60
2022-10-12T05:01:58.529Z,5.65
2022-10-12T05:04:26.736Z,5.68
2022-10-12T05:06:56.392Z,6.01
2022-10-12T05:09:24.521Z,5.76
2022-10-12T05:11:52.718Z,5.88
2022-10-12T05:14:20.890Z,5.99
2022-10-12T05:16:49.364Z,6.16
2022-10-12T05:19:17.499Z,6.29
2022-10-12T05:21:45.722Z,6.35
2022-10-12T05:24:15.508Z,6.67
2022-10-12T05:26:43.839Z,6.39
2022-10-12T05:29:12.038Z,6.48
2022-10-12T05:31:40.354Z,6.57
2022-10-12T05:34:08.685Z,6.63
2022-10-12T05:36:37.306Z,6.70
2022-10-12T05:39:05.482Z,6.78
2022-10-12T05:41:35.252Z,7.17
2022-10-12T05:44:03.527Z,6.77
2022-10-12T05:46:31.808Z,6.59
2022-10-12T05:48:59.926Z,6.67
2022-10-12T05:51:29.148Z,6.90
2022-10-12T05:53:57.374Z,7.05
2022-10-12T05:56:25.740Z,7.34
2022-10-12T05:58:55.406Z,7.85
2022-10-12T06:01:23.885Z,7.69
2022-10-12T06:03:53.441Z,7.78
2022-10-12T06:06:22.026Z,7.84
2022-10-12T06:08:50.141Z,7.56
2022-10-12T06:11:18.492Z,7.71
2022-10-12T06:13:46.612Z,8.04
2022-10-12T06:16:16.403Z,8.71
2022-10-12T06:18:44.484Z,8.72
2022-10-12T06:24:01.224Z,9.85
2022-10-12T06:26:29.646Z,10.87
2022-10-12T06:28:58.011Z,11.90
2022-10-12T06:31:28.233Z,13.40
2022-10-12T06:33:56.352Z,14.10
2022-10-12T06:36:24.652Z,14.64
2022-10-12T06:38:53.417Z,15.04
2022-10-12T06:41:21.771Z,15.29
2022-10-12T06:43:49.980Z,15.53
2022-10-12T06:46:18.637Z,15.68
2022-10-12T06:48:48.092Z,16.07
2022-10-12T06:51:16.514Z,16.17
2022-10-12T06:53:44.552Z,16.24
2022-10-12T06:56:13.852Z,16.00
2022-10-12T06:58:42.193Z,16.09
2022-10-12T07:01:11.165Z,16.94
2022-10-12T07:03:39.479Z,17.75
2022-10-12T07:06:11.857Z,17.83
2022-10-12T07:08:41.179Z,17.40
2022-10-12T07:11:11.930Z,17.69
2022-10-12T07:13:40.365Z,17.12
2022-10-12T07:16:09.337Z,17.52
2022-10-12T07:18:37.525Z,16.84
2022-10-12T07:21:06.091Z,16.55
2022-10-12T07:23:41.359Z,16.84
2022-10-12T07:26:13.377Z,16.48
2022-10-12T07:28:41.802Z,16.48
2022-10-12T07:31:10.777Z,17.29
2022-10-12T07:33:39.733Z,18.52
2022-10-12T07:36:21.384Z,20.63
2022-10-12T07:38:51.728Z,22.21
2022-10-12T07:41:20.131Z,22.58
2022-10-12T07:43:48.333Z,22.91
2022-10-12T07:46:16.613Z,22.62
2022-10-12T07:48:49.966Z,22.63
2022-10-12T07:51:18.993Z,22.41
2022-10-12T07:53:47.337Z,21.81
2022-10-12T07:56:17.097Z,21.98
2022-10-12T07:58:49.936Z,23.11
2022-10-12T08:01:19.268Z,24.77
2022-10-12T08:03:47.663Z,26.44
2022-10-12T08:06:17.425Z,28.12
2022-10-12T08:08:46.209Z,29.22
2022-10-12T08:11:16.068Z,29.85
2022-10-12T08:13:44.752Z,30.92
2022-10-12T08:16:15.531Z,31.02
2022-10-12T08:18:44.445Z,30.82
2022-10-12T08:21:16.559Z,30.98
2022-10-12T08:23:45.641Z,31.44
2022-10-12T08:26:16.899Z,32.22
2022-10-12T08:28:45.525Z,32.36
2022-10-12T08:31:16.583Z,33.38
2022-10-12T08:33:45.175Z,33.58
2022-10-12T08:36:14.378Z,34.15
2022-10-12T08:38:43.632Z,34.58
2022-10-12T08:41:22.639Z,35.63
2022-10-12T08:44:01.449Z,36.05
2022-10-12T08:46:30.453Z,36.02
2022-10-12T08:49:00.877Z,37.09
2022-10-12T08:51:31.712Z,37.47
2022-10-12T08:54:03.843Z,37.68
2022-10-12T08:56:35.014Z,38.47
2022-10-12T08:59:03.933Z,38.81
2022-10-12T09:01:37.477Z,39.32
2022-10-12T09:04:13.448Z,39.26
2022-10-12T09:06:46.648Z,38.81
2022-10-12T09:09:34.667Z,38.64
2022-10-12T09:12:11.134Z,37.53
2022-10-12T09:14:40.514Z,35.78
2022-10-12T09:17:23.496Z,36.91
2022-10-12T09:19:59.792Z,37.70
2022-10-12T09:22:29.181Z,38.29
2022-10-12T09:24:58.750Z,38.15
2022-10-12T09:27:31.304Z,37.86
2022-10-12T09:30:03.202Z,37.56
2022-10-12T09:32:42.013Z,37.32
2022-10-12T09:35:13.409Z,37.99
2022-10-12T09:37:42.040Z,37.84
2022-10-12T09:40:18.575Z,38.58
2022-10-12T09:42:48.884Z,39.92
2022-10-12T09:45:19.849Z,40.68
2022-10-12T09:48:16.457Z,39.84
2022-10-12T09:50:47.156Z,39.65
2022-10-12T09:53:32.427Z,38.59
2022-10-12T09:56:04.085Z,36.88
2022-10-12T09:58:39.073Z,36.55
2022-10-12T10:01:28.316Z,38.04
2022-10-12T10:04:12.596Z,37.84
2022-10-12T10:06:42.100Z,34.51
2022-10-12T10:09:28.423Z,33.41
2022-10-12T10:11:56.877Z,34.59
2022-10-12T10:14:26.669Z,36.71
2022-10-12T10:16:55.774Z,38.17
2022-10-12T10:19:26.613Z,38.06
2022-10-12T10:21:55.970Z,38.90
2022-10-12T10:24:29.568Z,39.52
2022-10-12T10:26:59.983Z,38.30
2022-10-12T10:29:36.229Z,36.54
2022-10-12T10:32:24.183Z,38.43
2022-10-12T10:35:03.215Z,39.88
2022-10-12T10:37:32.044Z,40.30
2022-10-12T10:40:00.970Z,41.81
2022-10-12T10:42:31.696Z,40.82
2022-10-12T10:45:02.935Z,41.57
2022-10-12T10:47:33.190Z,42.02
2022-10-12T10:50:03.091Z,43.07
2022-10-12T10:52:32.648Z,43.09
2022-10-12T10:55:17.235Z,42.55
2022-10-12T10:57:49.591Z,41.70
2022-10-12T11:03:14.613Z,41.53
2022-10-12T11:05:46.182Z,39.41
2022-10-12T11:08:17.247Z,38.57
2022-10-12T11:10:49.766Z,38.08
2022-10-12T11:13:20.508Z,37.72
2022-10-12T11:15:51.732Z,36.81
2022-10-12T11:18:24.807Z,33.57
2022-10-12T11:20:56.462Z,28.84
2022-10-12T11:23:42.012Z,28.05
2022-10-12T11:26:14.877Z,31.16
2022-10-12T11:28:43.329Z,32.97
2022-10-12T11:31:20.171Z,34.44
2022-10-12T11:33:49.496Z,35.05
2022-10-12T11:36:20.608Z,34.68
2022-10-12T11:38:52.105Z,34.48
2022-10-12T11:41:37.767Z,33.35
2022-10-12T11:44:11.006Z,31.19
2022-10-12T11:46:46.050Z,29.49
2022-10-12T11:49:17.638Z,27.85
2022-10-12T11:51:48.067Z,26.39
2022-10-12T11:54:21.160Z,25.53
2022-10-12T11:56:51.596Z,24.10
2022-10-12T11:59:25.936Z,22.11
2022-10-12T12:02:02.671Z,20.80
2022-10-12T12:04:47.819Z,20.51
2022-10-12T12:07:56.797Z,20.64
2022-10-12T12:10:54.309Z,20.56
2022-10-12T12:13:27.087Z,20.38
2022-10-12T12:16:34.390Z,20.34
2022-10-12T12:19:42.630Z,19.57
2022-10-12T12:22:23.724Z,18.50
2022-10-12T12:24:58.214Z,17.98
2022-10-12T12:27:33.341Z,18.04
2022-10-12T12:30:03.139Z,17.66
2022-10-12T12:32:43.875Z,17.86
2022-10-12T12:35:23.289Z,17.65
2022-10-12T12:38:17.312Z,17.77
2022-10-12T12:41:00.509Z,17.56
2022-10-12T12:43:59.632Z,17.44
2022-10-12T12:50:02.571Z,16.87
2022-10-12T12:52:34.987Z,16.57
2022-10-12T12:55:20.479Z,16.46
2022-10-12T12:58:06.014Z,16.57
2022-10-12T13:00:39.067Z,15.94
2022-10-12T13:03:24.958Z,16.10
2022-10-12T13:06:30.060Z,16.21
2022-10-12T13:09:20.597Z,16.44
2022-10-12T13:12:09.701Z,16.18
2022-10-12T13:14:50.670Z,16.36
2022-10-12T13:17:38.206Z,17.05
2022-10-12T13:20:17.354Z,16.68
2022-10-12T13:22:46.811Z,16.64
2022-10-12T13:25:21.870Z,16.94
2022-10-12T13:27:52.294Z,16.83
2022-10-12T13:30:26.141Z,16.45
2022-10-12T13:32:58.082Z,16.46
2022-10-12T13:35:32.399Z,16.63
2022-10-12T13:38:02.485Z,16.68
2022-10-12T13:40:34.925Z,16.71
2022-10-12T13:43:35.489Z,16.77
2022-10-12T13:46:04.609Z,15.83
2022-10-12T13:48:58.788Z,15.98
2022-10-12T13:51:26.589Z,16.56
2022-10-12T13:53:55.180Z,16.44
2022-10-12T13:56:26.837Z,16.86
2022-10-12T13:58:59.058Z,16.34
2022-10-12T14:01:27.550Z,16.02
2022-10-12T14:04:03.654Z,16.42
2022-10-12T14:06:34.803Z,15.95
2022-10-12T14:09:08.998Z,16.00
2022-10-12T14:11:38.849Z,15.88
2022-10-12T14:14:07.740Z,15.63
2022-10-12T14:16:35.899Z,15.36
2022-10-12T14:19:19.887Z,15.90
2022-10-12T14:21:49.148Z,15.76
2022-10-12T14:24:19.911Z,15.73
2022-10-12T14:26:56.025Z,15.82
2022-10-12T14:29:32.237Z,15.20
2022-10-12T14:32:02.092Z,15.20
2022-10-12T14:34:40.473Z,15.31
2022-10-12T14:37:29.936Z,15.58
2022-10-12T14:40:02.625Z,15.15
2022-10-12T14:42:34.433Z,15.49
2022-10-12T14:45:04.893Z,15.43
2022-10-12T14:47:34.845Z,15.32
2022-10-12T14:50:08.253Z,15.11
2022-10-12T14:52:39.675Z,15.41
2022-10-12T14:55:11.364Z,15.13
2022-10-12T14:57:41.277Z,15.17
2022-10-12T15:00:10.254Z,15.10
2022-10-12T15:02:40.265Z,15.22
2022-10-12T15:05:10.484Z,14.91
2022-10-12T15:07:38.811Z,14.59
2022-10-12T15:10:08.061Z,14.77
2022-10-12T15:12:36.649Z,14.58
2022-10-12T15:15:24.279Z,14.90
2022-10-12T15:17:56.284Z,14.17
2022-10-12T15:20:24.601Z,13.98
2022-10-12T15:22:52.863Z,14.13
2022-10-12T15:25:24.435Z,14.42
2022-10-12T15:27:52.849Z,14.09
2022-10-12T15:30:22.736Z,14.27
2022-10-12T15:32:51.489Z,14.08
2022-10-12T15:35:24.639Z,14.43
2022-10-12T15:37:56.286Z,14.27
2022-10-12T15:40:25.657Z,14.21
2022-10-12T15:42:53.834Z,14.06
2022-10-12T15:45:25.120Z,14.30
2022-10-12T15:47:54.281Z,14.32
2022-10-12T15:50:24.833Z,14.29
2022-10-12T15:52:54.309Z,14.15
2022-10-12T15:55:25.016Z,14.30
2022-10-12T15:57:53.515Z,13.96
2022-10-12T16:00:26.048Z,14.08
2022-10-12T16:02:54.648Z,13.68
2022-10-12T16:05:24.324Z,13.49
2022-10-12T16:07:52.979Z,13.53
2022-10-12T16:10:23.803Z,13.55
2022-10-12T16:12:53.727Z,13.52
2022-10-12T16:15:24.862Z,13.57
2022-10-12T16:17:53.254Z,13.19
2022-10-12T16:20:21.607Z,13.13
2022-10-12T16:22:50.254Z,13.26
2022-10-12T16:25:21.594Z,13.42
2022-10-12T16:27:49.941Z,13.00
2022-10-12T16:30:18.452Z,13.04
2022-10-12T16:32:48.080Z,13.07
2022-10-12T16:35:16.655Z,12.82
2022-10-12T16:37:45.022Z,12.85
2022-10-12T16:40:13.964Z,12.88
2022-10-12T16:42:42.343Z,12.67
2022-10-12T16:45:11.389Z,12.53
2022-10-12T16:47:42.795Z,12.48
2022-10-12T16:50:13.049Z,12.48
2022-10-12T16:52:41.540Z,12.18
2022-10-12T16:55:10.645Z,12.15
2022-10-12T16:57:39.033Z,12.21
2022-10-12T17:00:08.468Z,12.24
2022-10-12T17:02:36.840Z,12.15
2022-10-12T17:05:05.620Z,12.24
2022-10-12T17:07:35.488Z,12.47
2022-10-12T17:10:03.614Z,12.20
2022-10-12T17:12:31.973Z,12.10
2022-10-12T17:15:00.139Z,11.94
2022-10-12T17:17:28.562Z,11.92
2022-10-12T17:19:56.810Z,11.96
2022-10-12T17:22:25.374Z,12.02
2022-10-12T17:24:54.918Z,11.95
2022-10-12T17:27:23.184Z,11.79
2022-10-12T17:29:51.277Z,11.72
2022-10-12T17:32:19.958Z,11.61
2022-10-12T17:34:48.208Z,11.64
2022-10-12T17:37:16.982Z,11.68
2022-10-12T17:39:48.023Z,11.63
2022-10-12T17:42:18.954Z,11.56
2022-10-12T17:44:47.522Z,11.25
2022-10-12T17:47:16.338Z,11.27
2022-10-12T17:49:44.830Z,11.33
2022-10-12T17:52:13.432Z,11.43
2022-10-12T17:54:41.836Z,11.41
2022-10-12T17:57:10.228Z,11.09
2022-10-12T17:59:40.244Z,11.07
2022-10-12T18:02:09.756Z,10.95
2022-10-12T18:04:38.700Z,10.86
2022-10-12T18:07:06.926Z,10.73
2022-10-12T18:09:35.035Z,10.79
2022-10-12T18:12:03.468Z,10.78
2022-10-12T18:14:31.592Z,10.50
2022-10-12T18:17:01.474Z,10.80
2022-10-12T18:19:30.095Z,10.54
2022-10-12T18:21:58.246Z,10.47
2022-10-12T18:24:26.316Z,10.54
2022-10-12T18:26:54.798Z,10.52
2022-10-12T18:29:23.009Z,10.44
2022-10-12T18:31:51.241Z,10.29
2022-10-12T18:34:20.935Z,10.66
2022-10-12T18:36:49.127Z,10.39
2022-10-12T18:39:17.634Z,10.50
2022-10-12T18:41:45.808Z,10.41
2022-10-12T18:44:15.129Z,10.34
2022-10-12T18:46:43.410Z,10.31
2022-10-12T18:49:12.300Z,10.37
2022-10-12T18:51:43.612Z,10.61
2022-10-12T18:54:12.946Z,11.03
2022-10-12T18:56:41.835Z,10.34
2022-10-12T18:59:11.658Z,10.27
2022-10-12T19:01:39.820Z,10.13
2022-10-12T19:04:08.227Z,10.16
2022-10-12T19:06:39.031Z,10.36
2022-10-12T19:09:08.878Z,10.38
2022-10-12T19:11:37.691Z,9.97
2022-10-12T19:14:08.250Z,10.15
2022-10-12T19:16:37.010Z,10.01
2022-10-12T19:19:11.835Z,10.30
2022-10-12T19:21:40.558Z,10.03
2022-10-12T19:24:12.629Z,10.14
2022-10-12T19:26:41.079Z,9.77
2022-10-12T19:29:09.714Z,9.65
2022-10-12T19:31:39.588Z,9.75
2022-10-12T19:34:10.550Z,9.61
2022-10-12T19:36:40.222Z,9.59
2022-10-12T19:39:13.517Z,9.77
2022-10-12T19:41:41.875Z,9.12
2022-10-12T19:44:11.863Z,9.57
2022-10-12T19:46:40.604Z,9.42
2022-10-12T19:49:08.994Z,9.41
2022-10-12T19:51:37.115Z,9.36
2022-10-12T19:54:05.602Z,9.46
2022-10-12T19:56:35.314Z,9.68
2022-10-12T19:59:03.778Z,9.28
2022-10-12T20:01:34.857Z,9.52
2022-10-12T20:04:06.744Z,9.50
2022-10-12T20:06:35.296Z,9.27
2022-10-12T20:09:03.463Z,9.22
2022-10-12T20:11:32.101Z,9.25
2022-10-12T20:14:01.853Z,9.49
2022-10-12T20:16:34.810Z,9.10
2022-10-12T20:19:04.016Z,9.13
2022-10-12T20:21:32.330Z,9.07
2022-10-12T20:24:00.453Z,9.10
2022-10-12T20:26:29.892Z,9.21
2022-10-12T20:28:58.267Z,8.95
2022-10-12T20:31:29.495Z,9.19
2022-10-12T20:33:58.860Z,9.03
2022-10-12T20:36:28.855Z,9.09
2022-10-12T20:38:58.355Z,9.00
2022-10-12T20:41:27.735Z,8.85
2022-10-12T20:43:57.363Z,8.84
2022-10-12T20:46:27.664Z,8.72
2022-10-12T20:48:58.811Z,9.00
2022-10-12T20:51:28.218Z,9.34
2022-10-12T20:53:59.200Z,8.73
2022-10-12T20:56:27.939Z,8.69
2022-10-12T20:58:56.521Z,8.59
2022-10-12T21:01:25.929Z,8.58
2022-10-12T21:03:56.082Z,8.68
2022-10-12T21:06:24.592Z,8.43
2022-10-12T21:08:53.664Z,8.43
2022-10-12T21:11:22.319Z,8.43
2022-10-12T21:13:51.103Z,8.51
2022-10-12T21:16:19.905Z,8.48
2022-10-12T21:18:48.286Z,8.41
2022-10-12T21:21:19.897Z,8.72
2022-10-12T21:23:52.430Z,9.10
2022-10-12T21:26:23.300Z,8.56
2022-10-12T21:28:51.691Z,8.22
2022-10-12T21:31:21.228Z,8.40
2022-10-12T21:33:49.708Z,8.18
2022-10-12T21:36:20.424Z,8.44
2022-10-12T21:38:49.235Z,8.20
2022-10-12T21:41:18.737Z,8.32
2022-10-12T21:43:48.446Z,8.23
2022-10-12T21:46:18.613Z,8.27
2022-10-12T21:48:47.282Z,7.99
2022-10-12T21:51:15.766Z,7.80
2022-10-12T21:53:45.655Z,7.53
2022-10-12T21:56:16.146Z,7.66
2022-10-12T21:58:44.821Z,7.69
2022-10-12T22:01:14.656Z,7.83
2022-10-12T22:03:43.710Z,7.72
2022-10-12T22:06:14.078Z,8.02
2022-10-12T22:08:42.388Z,7.70
2022-10-12T22:11:13.769Z,8.08
2022-10-12T22:13:42.028Z,7.76
2022-10-12T22:16:12.968Z,8.02
2022-10-12T22:18:41.933Z,7.82
2022-10-12T22:21:12.706Z,7.91
2022-10-12T22:23:41.868Z,7.62
2022-10-12T22:26:13.486Z,7.72
2022-10-12T22:28:41.898Z,7.58
2022-10-12T22:31:11.925Z,7.74
2022-10-12T22:33:40.545Z,7.62
2022-10-12T22:36:09.571Z,7.70
2022-10-12T22:38:37.818Z,7.54
2022-10-12T22:41:07.606Z,7.67
2022-10-12T22:43:37.721Z,7.65
2022-10-12T22:46:06.217Z,7.42
2022-10-12T22:48:35.226Z,7.30
2022-10-12T22:51:04.127Z,7.37
2022-10-12T22:53:32.253Z,7.23
2022-10-12T22:56:02.085Z,7.51
2022-10-12T22:58:30.770Z,7.20
2022-10-12T23:01:04.250Z,7.59
2022-10-12T23:03:33.175Z,7.34
2022-10-12T23:06:01.528Z,7.15
2022-10-12T23:08:30.352Z,7.25
2022-10-12T23:11:04.960Z,7.46
2022-10-12T23:13:33.264Z,7.19
2022-10-12T23:16:07.434Z,7.48
2022-10-12T23:18:36.655Z,7.39
2022-10-12T23:21:06.364Z,7.21
2022-10-12T23:23:34.929Z,6.95
2022-10-12T23:26:04.799Z,7.02
2022-10-12T23:28:33.303Z,6.94
2022-10-12T23:31:03.862Z,7.21
2022-10-12T23:33:33.607Z,7.17
2022-10-12T23:36:03.723Z,6.97
2022-10-12T23:38:33.760Z,7.05
2022-10-12T23:41:02.322Z,6.82
2022-10-12T23:43:30.713Z,6.72
2022-10-12T23:45:58.965Z,6.75
2022-10-12T23:48:27.624Z,6.70
2022-10-12T23:50:57.706Z,6.90
2022-10-12T23:53:26.404Z,6.77
2022-10-12T23:55:54.770Z,6.67
2022-10-12T23:58:23.085Z,6.68
